Time;durP1;ratioP1;P1;durP2;ratioP2;P2;SDS_P1;SDS_P2;PMS_P1;PMS_P2;Temp;Humidity;BMP_temperature;BMP_pressure;BME280_temperature;BME280_humidity;BME280_pressure;Samples;Min_cycle;Max_cycle;Signal;HPM_P1;HPM_P2
2022/07/09 00:00:46;;;;;;;;;;;27.00;42.30;;;;;;5075539;28;1970;-45
2022/07/09 00:03:13;;;;;;;;;;;27.00;42.20;;;;;;5076009;28;1115;-45
2022/07/09 00:05:41;;;;;;;;;;;27.00;42.30;;;;;;5077414;28;996;-45
2022/07/09 00:08:08;;;;;;;;;;;27.10;42.30;;;;;;5077036;28;978;-44
2022/07/09 00:10:35;;;;;;;;;;;27.10;42.30;;;;;;5077004;28;990;-44
2022/07/09 00:13:01;;;;;;;;;;;27.10;42.20;;;;;;5076592;28;1048;-45
2022/07/09 00:15:28;;;;;;;;;;;27.00;43.40;;;;;;5077038;28;978;-45
2022/07/09 00:17:55;;;;;;;;;;;27.10;42.20;;;;;;5077265;28;932;-45
2022/07/09 00:20:22;;;;;;;;;;;27.10;42.30;;;;;;5077544;28;1971;-45
2022/07/09 00:22:50;;;;;;;;;;;27.10;42.20;;;;;;5077105;28;929;-45
2022/07/09 00:25:17;;;;;;;;;;;27.10;42.20;;;;;;5077628;28;999;-45
2022/07/09 00:27:44;;;;;;;;;;;27.10;42.10;;;;;;5077856;28;1111;-45
2022/07/09 00:30:11;;;;;;;;;;;27.20;42.00;;;;;;5077410;28;944;-44
2022/07/09 00:32:39;;;;;;;;;;;27.30;41.70;;;;;;5077867;28;993;-45
2022/07/09 00:35:06;;;;;;;;;;;27.30;41.60;;;;;;5077038;28;987;-44
2022/07/09 00:37:33;;;;;;;;;;;27.40;41.60;;;;;;5075753;28;948;-44
2022/07/09 00:40:01;;;;;;;;;;;27.50;41.40;;;;;;5075785;28;980;-45
2022/07/09 00:42:27;;;;;;;;;;;27.40;41.40;;;;;;5075444;28;1906;-44
2022/07/09 00:44:54;;;;;;;;;;;27.50;41.60;;;;;;5073094;28;1011;-45
2022/07/09 00:47:21;;;;;;;;;;;27.40;41.50;;;;;;5076693;28;980;-44
2022/07/09 00:49:48;;;;;;;;;;;27.40;41.60;;;;;;5075730;28;933;-44
2022/07/09 00:52:17;;;;;;;;;;;27.50;41.60;;;;;;5074853;28;972;-44
2022/07/09 00:54:43;;;;;;;;;;;27.40;41.50;;;;;;5079480;28;1051;-44
2022/07/09 00:57:12;;;;;;;;;;;27.50;41.50;;;;;;5079560;28;1398;-44
2022/07/09 00:59:39;;;;;;;;;;;27.50;41.40;;;;;;5079256;28;964;-44
2022/07/09 01:02:07;;;;;;;;;;;27.60;41.30;;;;;;5079050;28;1910;-44
2022/07/09 01:04:33;;;;;;;;;;;27.60;41.30;;;;;;5078602;28;929;-44
2022/07/09 01:07:01;;;;;;;;;;;27.60;41.30;;;;;;5076913;28;1014;-44
2022/07/09 01:09:28;;;;;;;;;;;27.60;41.40;;;;;;5079803;28;937;-45
2022/07/09 01:11:55;;;;;;;;;;;27.50;41.50;;;;;;5080320;28;930;-45
2022/07/09 01:14:23;;;;;;;;;;;27.40;41.50;;;;;;5081491;28;995;-44
2022/07/09 01:16:57;;;;;;;;;;;27.50;41.60;;;;;;5081837;28;1011;-45
2022/07/09 01:19:23;;;;;;;;;;;27.50;41.70;;;;;;5081680;28;969;-44
2022/07/09 01:21:51;;;;;;;;;;;27.40;41.50;;;;;;5081218;28;1905;-44
2022/07/09 01:24:18;;;;;;;;;;;27.40;41.50;;;;;;5080491;28;941;-44
2022/07/09 01:26:45;;;;;;;;;;;27.40;41.70;;;;;;5080904;28;973;-44
2022/07/09 01:29:11;;;;;;;;;;;27.40;42.90;;;;;;5080490;28;1019;-44
2022/07/09 01:31:38;;;;;;;;;;;27.50;41.60;;;;;;5080510;28;945;-45
2022/07/09 01:34:05;;;;;;;;;;;27.50;41.50;;;;;;5080855;28;1021;-44
2022/07/09 01:36:32;;;;;;;;;;;27.50;41.50;;;;;;5080449;28;1004;-44
2022/07/09 01:39:00;;;;;;;;;;;27.50;41.50;;;;;;5080659;28;1079;-44
2022/07/09 01:41:27;;;;;;;;;;;27.50;41.40;;;;;;5080297;28;1906;-44
2022/07/09 01:43:53;;;;;;;;;;;27.50;41.50;;;;;;5080431;28;974;-44
2022/07/09 01:46:20;;;;;;;;;;;27.50;41.40;;;;;;5080971;28;902;-45
2022/07/09 01:48:46;;;;;;;;;;;27.50;41.50;;;;;;5079315;28;1007;-44
2022/07/09 01:51:13;;;;;;;;;;;27.40;41.50;;;;;;5080492;28;991;-44
2022/07/09 01:53:40;;;;;;;;;;;27.40;41.60;;;;;;5080669;28;1008;-43
2022/07/09 01:56:09;;;;;;;;;;;27.50;41.60;;;;;;5076997;28;1761;-43
2022/07/09 01:58:36;;;;;;;;;;;27.50;41.50;;;;;;5080531;28;1012;-44
2022/07/09 02:01:03;;;;;;;;;;;27.40;41.60;;;;;;5079843;28;1977;-44
2022/07/09 02:03:30;;;;;;;;;;;27.60;41.50;;;;;;5080028;28;1433;-47
2022/07/09 02:05:57;;;;;;;;;;;27.60;41.40;;;;;;5079795;28;976;-47
2022/07/09 02:08:25;;;;;;;;;;;27.60;41.30;;;;;;5080274;28;996;-46
2022/07/09 02:10:51;;;;;;;;;;;27.60;42.60;;;;;;5079902;28;953;-47
2022/07/09 02:13:19;;;;;;;;;;;27.60;41.50;;;;;;5080772;28;1004;-47
2022/07/09 02:15:46;;;;;;;;;;;27.50;41.50;;;;;;5080432;28;996;-46
2022/07/09 02:18:13;;;;;;;;;;;27.50;41.60;;;;;;5080175;28;937;-47
2022/07/09 02:20:40;;;;;;;;;;;27.50;41.50;;;;;;5079752;28;945;-47
2022/07/09 02:23:07;;;;;;;;;;;27.60;41.50;;;;;;5079841;28;1894;-46
2022/07/09 02:25:34;;;;;;;;;;;27.60;41.50;;;;;;5080254;28;982;-47
2022/07/09 02:28:01;;;;;;;;;;;27.50;41.40;;;;;;5079738;28;1011;-46
2022/07/09 02:30:29;;;;;;;;;;;27.50;41.50;;;;;;5080214;28;1097;-47
2022/07/09 02:32:56;;;;;;;;;;;27.60;41.50;;;;;;5079993;28;1017;-46
2022/07/09 02:35:22;;;;;;;;;;;27.50;41.40;;;;;;5079635;28;892;-47
2022/07/09 02:37:49;;;;;;;;;;;27.50;41.50;;;;;;5079071;28;948;-46
2022/07/09 02:40:16;;;;;;;;;;;27.50;41.40;;;;;;5079773;28;1244;-46
2022/07/09 02:42:43;;;;;;;;;;;27.60;41.40;;;;;;5078798;28;1897;-47
2022/07/09 02:45:10;;;;;;;;;;;27.50;41.30;;;;;;5079224;28;1001;-47
2022/07/09 02:47:38;;;;;;;;;;;27.50;41.50;;;;;;5078602;28;985;-46
2022/07/09 02:50:05;;;;;;;;;;;27.50;41.50;;;;;;5078837;28;993;-47
2022/07/09 02:52:32;;;;;;;;;;;27.50;41.50;;;;;;5077401;28;933;-46
2022/07/09 02:54:59;;;;;;;;;;;27.60;41.40;;;;;;5079498;28;1040;-47
2022/07/09 02:57:25;;;;;;;;;;;27.50;41.40;;;;;;5079536;28;995;-46
2022/07/09 02:59:52;;;;;;;;;;;27.50;41.50;;;;;;5078133;28;1003;-48
2022/07/09 03:02:19;;;;;;;;;;;27.50;41.50;;;;;;5078625;28;1902;-47
2022/07/09 03:04:47;;;;;;;;;;;27.60;41.50;;;;;;5079104;28;1027;-47
2022/07/09 03:07:14;;;;;;;;;;;27.50;41.50;;;;;;5078724;28;937;-46
2022/07/09 03:09:42;;;;;;;;;;;27.60;41.50;;;;;;5077492;28;892;-47
2022/07/09 03:12:09;;;;;;;;;;;27.50;41.50;;;;;;5077747;28;933;-48
2022/07/09 03:14:35;;;;;;;;;;;27.50;41.50;;;;;;5077802;28;1012;-47
2022/07/09 03:17:02;;;;;;;;;;;27.50;41.50;;;;;;5077792;28;933;-47
2022/07/09 03:19:29;;;;;;;;;;;27.50;41.70;;;;;;5077284;28;993;-46
2022/07/09 03:21:57;;;;;;;;;;;27.50;41.70;;;;;;5077892;28;1902;-46
2022/07/09 03:24:24;;;;;;;;;;;27.50;41.60;;;;;;5077641;28;1790;-47
2022/07/09 03:26:51;;;;;;;;;;;27.50;41.60;;;;;;5077826;28;996;-47
2022/07/09 03:29:17;;;;;;;;;;;27.50;41.60;;;;;;5077596;28;1002;-47
2022/07/09 03:31:44;;;;;;;;;;;27.50;41.60;;;;;;5077289;28;959;-47
2022/07/09 03:34:11;;;;;;;;;;;27.50;41.60;;;;;;5077666;28;992;-47
2022/07/09 03:36:37;;;;;;;;;;;27.50;41.50;;;;;;5077615;28;1019;-47
2022/07/09 03:39:06;;;;;;;;;;;27.50;41.60;;;;;;5077690;28;936;-47
2022/07/09 03:41:32;;;;;;;;;;;27.50;41.50;;;;;;5078271;28;1902;-47
2022/07/09 03:43:59;;;;;;;;;;;27.50;41.50;;;;;;5078198;28;961;-47
2022/07/09 03:46:26;;;;;;;;;;;27.50;41.60;;;;;;5077891;28;1008;-47
2022/07/09 03:48:52;;;;;;;;;;;27.50;41.50;;;;;;5077895;28;1024;-47
2022/07/09 03:51:19;;;;;;;;;;;27.50;41.70;;;;;;5078565;28;916;-47
2022/07/09 03:53:46;;;;;;;;;;;27.50;41.70;;;;;;5077532;28;925;-47
2022/07/09 03:56:14;;;;;;;;;;;27.50;41.70;;;;;;5078369;28;993;-46
2022/07/09 03:58:43;;;;;;;;;;;27.40;41.60;;;;;;5078226;28;957;-46
2022/07/09 04:01:09;;;;;;;;;;;27.50;41.70;;;;;;5077981;28;1001;-50
2022/07/09 04:03:36;;;;;;;;;;;27.50;41.70;;;;;;5077496;28;1986;-47
2022/07/09 04:06:03;;;;;;;;;;;27.40;41.60;;;;;;5078080;28;988;-46
2022/07/09 04:08:30;;;;;;;;;;;27.40;41.60;;;;;;5078284;28;904;-46
2022/07/09 04:10:56;;;;;;;;;;;27.50;41.70;;;;;;5077697;28;1052;-46
2022/07/09 04:13:24;;;;;;;;;;;27.50;41.70;;;;;;5077302;28;1098;-47
2022/07/09 04:15:51;;;;;;;;;;;27.50;41.70;;;;;;5077323;28;1000;-46
2022/07/09 04:18:18;;;;;;;;;;;27.50;41.60;;;;;;5077044;28;987;-47
2022/07/09 04:20:44;;;;;;;;;;;27.50;41.70;;;;;;5077106;28;948;-47
2022/07/09 04:23:11;;;;;;;;;;;27.50;41.60;;;;;;5077800;28;1901;-47
2022/07/09 04:25:38;;;;;;;;;;;27.40;41.50;;;;;;5078154;28;1026;-46
2022/07/09 04:28:05;;;;;;;;;;;27.50;41.50;;;;;;5077672;28;1748;-47
2022/07/09 04:30:33;;;;;;;;;;;27.50;41.50;;;;;;5077817;28;938;-48
2022/07/09 04:33:01;;;;;;;;;;;27.50;41.50;;;;;;5077802;28;956;-47
2022/07/09 04:35:28;;;;;;;;;;;27.50;41.60;;;;;;5077433;28;1095;-47
2022/07/09 04:37:55;;;;;;;;;;;27.50;41.60;;;;;;5077601;28;1028;-47
2022/07/09 04:40:21;;;;;;;;;;;27.50;41.50;;;;;;5077762;28;1011;-47
2022/07/09 04:42:48;;;;;;;;;;;27.50;41.70;;;;;;5077265;28;1906;-46
2022/07/09 04:45:15;;;;;;;;;;;27.50;41.60;;;;;;5077561;28;998;-46
2022/07/09 04:47:43;;;;;;;;;;;27.50;41.60;;;;;;5077678;28;992;-47
2022/07/09 04:50:10;;;;;;;;;;;27.50;41.60;;;;;;5077342;28;934;-47
2022/07/09 04:52:37;;;;;;;;;;;27.50;41.60;;;;;;5077818;28;913;-47
2022/07/09 04:55:04;;;;;;;;;;;27.40;41.60;;;;;;5077554;28;1002;-48
2022/07/09 04:57:31;;;;;;;;;;;27.40;41.60;;;;;;5077064;28;981;-47
2022/07/09 04:59:58;;;;;;;;;;;27.50;41.50;;;;;;5077465;28;1037;-47
2022/07/09 05:02:25;;;;;;;;;;;27.50;41.60;;;;;;5076198;28;1902;-47
2022/07/09 05:04:53;;;;;;;;;;;27.50;41.60;;;;;;5076489;28;980;-47
2022/07/09 05:07:20;;;;;;;;;;;27.50;41.60;;;;;;5075763;28;1023;-47
2022/07/09 05:09:47;;;;;;;;;;;27.50;41.50;;;;;;5075220;28;996;-46
2022/07/09 05:12:13;;;;;;;;;;;27.50;41.40;;;;;;5076391;28;1044;-46
2022/07/09 05:14:40;;;;;;;;;;;27.50;41.50;;;;;;5077332;28;1035;-48
2022/07/09 05:17:07;;;;;;;;;;;27.50;41.50;;;;;;5076418;28;1041;-46
2022/07/09 05:19:33;;;;;;;;;;;27.40;41.50;;;;;;5076739;28;1025;-47
2022/07/09 05:22:02;;;;;;;;;;;27.50;41.60;;;;;;5076076;28;1979;-46
2022/07/09 05:24:29;;;;;;;;;;;27.50;41.60;;;;;;5077127;28;1010;-47
2022/07/09 05:26:56;;;;;;;;;;;27.50;41.50;;;;;;5076759;28;933;-46
2022/07/09 05:29:24;;;;;;;;;;;27.50;41.50;;;;;;5077654;28;992;-47
2022/07/09 05:31:51;;;;;;;;;;;27.50;41.40;;;;;;5076261;28;933;-48
2022/07/09 05:34:18;;;;;;;;;;;27.50;41.40;;;;;;5077135;28;979;-47
2022/07/09 05:36:44;;;;;;;;;;;27.50;41.60;;;;;;5076931;28;929;-47
2022/07/09 05:39:12;;;;;;;;;;;27.50;41.70;;;;;;5076899;28;993;-47
2022/07/09 05:41:39;;;;;;;;;;;27.50;41.60;;;;;;5080879;28;1015;-47
2022/07/09 05:44:05;;;;;;;;;;;27.50;41.60;;;;;;5080290;28;1902;-48
2022/07/09 05:46:32;;;;;;;;;;;27.50;41.60;;;;;;5079809;28;953;-39
2022/07/09 05:48:59;;;;;;;;;;;27.50;41.60;;;;;;5080310;28;959;-39
2022/07/09 05:51:26;;;;;;;;;;;27.50;41.80;;;;;;5078279;28;984;-39
2022/07/09 05:53:52;;;;;;;;;;;27.40;41.60;;;;;;5080176;28;1030;-39
2022/07/09 05:56:21;;;;;;;;;;;27.50;41.70;;;;;;5079956;28;1019;-39
2022/07/09 05:58:48;;;;;;;;;;;27.50;41.70;;;;;;5079889;28;1031;-39
2022/07/09 06:01:15;;;;;;;;;;;27.50;41.70;;;;;;5079629;28;932;-39
2022/07/09 06:03:42;;;;;;;;;;;27.50;41.60;;;;;;5079467;28;1902;-39
2022/07/09 06:06:10;;;;;;;;;;;27.50;41.70;;;;;;5080137;28;1034;-39
2022/07/09 06:08:36;;;;;;;;;;;27.50;41.60;;;;;;5080507;28;1034;-39
2022/07/09 06:11:03;;;;;;;;;;;27.50;41.70;;;;;;5080160;28;953;-39
2022/07/09 06:13:32;;;;;;;;;;;27.50;41.70;;;;;;5078855;28;1011;-39
2022/07/09 06:15:58;;;;;;;;;;;27.50;41.70;;;;;;5078018;28;981;-39
2022/07/09 06:18:25;;;;;;;;;;;27.50;41.70;;;;;;5079723;28;1004;-39
2022/07/09 06:20:52;;;;;;;;;;;27.50;41.70;;;;;;5079975;28;909;-39
2022/07/09 06:23:20;;;;;;;;;;;27.40;41.70;;;;;;5079415;28;1975;-39
2022/07/09 06:25:47;;;;;;;;;;;27.50;41.80;;;;;;5078397;28;957;-39
2022/07/09 06:28:14;;;;;;;;;;;27.50;41.80;;;;;;5080030;28;993;-39
2022/07/09 06:30:43;;;;;;;;;;;27.60;41.80;;;;;;5079311;28;949;-39
2022/07/09 06:33:10;;;;;;;;;;;27.50;41.70;;;;;;5079900;28;1008;-39
2022/07/09 06:35:37;;;;;;;;;;;27.60;41.80;;;;;;5079807;28;1956;-39
2022/07/09 06:38:04;;;;;;;;;;;27.60;41.60;;;;;;5078819;28;1004;-36
2022/07/09 06:40:30;;;;;;;;;;;27.50;41.80;;;;;;5078917;28;1019;-36
2022/07/09 06:42:57;;;;;;;;;;;27.50;41.90;;;;;;5079404;28;1980;-36
2022/07/09 06:45:24;;;;;;;;;;;27.50;41.70;;;;;;5079176;28;1016;-34
2022/07/09 06:47:53;;;;;;;;;;;27.50;41.80;;;;;;5078808;28;937;-42
2022/07/09 06:50:20;;;;;;;;;;;27.50;41.70;;;;;;5078476;28;1062;-43
2022/07/09 06:52:47;;;;;;;;;;;27.50;41.70;;;;;;5075749;28;960;-43
2022/07/09 06:55:14;;;;;;;;;;;27.60;41.90;;;;;;5077413;28;997;-45
2022/07/09 06:57:40;;;;;;;;;;;27.50;41.80;;;;;;5078397;28;972;-45
2022/07/09 07:00:08;;;;;;;;;;;27.50;41.80;;;;;;5078058;28;1012;-46
2022/07/09 07:02:35;;;;;;;;;;;27.60;41.90;;;;;;5077374;28;1979;-45
2022/07/09 07:05:03;;;;;;;;;;;27.60;41.70;;;;;;5076068;28;1022;-47
2022/07/09 07:07:30;;;;;;;;;;;27.60;41.60;;;;;;5076829;28;941;-46
2022/07/09 07:09:57;;;;;;;;;;;27.60;41.70;;;;;;5077710;28;988;-45
2022/07/09 07:12:23;;;;;;;;;;;27.60;41.60;;;;;;5074093;28;1017;-45
2022/07/09 07:14:50;;;;;;;;;;;27.60;41.50;;;;;;5077629;28;1004;-45
2022/07/09 07:17:17;;;;;;;;;;;27.60;41.50;;;;;;5076615;28;1021;-45
2022/07/09 07:19:44;;;;;;;;;;;27.60;41.50;;;;;;5076714;28;1008;-46
2022/07/09 07:22:12;;;;;;;;;;;27.70;41.50;;;;;;5076870;28;1008;-45
2022/07/09 07:24:39;;;;;;;;;;;27.60;41.50;;;;;;5076198;28;1906;-43
2022/07/09 07:27:06;;;;;;;;;;;27.70;41.60;;;;;;5076633;28;989;-45
2022/07/09 07:29:33;;;;;;;;;;;27.60;41.50;;;;;;5077465;28;913;-45
2022/07/09 07:31:59;;;;;;;;;;;27.60;41.50;;;;;;5076585;28;1001;-45
2022/07/09 07:34:26;;;;;;;;;;;27.60;41.40;;;;;;5077151;28;1055;-45
2022/07/09 07:36:53;;;;;;;;;;;27.70;41.50;;;;;;5075528;28;1024;-46
2022/07/09 07:39:21;;;;;;;;;;;27.70;41.60;;;;;;5076374;28;1065;-43
2022/07/09 07:41:48;;;;;;;;;;;27.70;41.60;;;;;;5076429;28;933;-45
2022/07/09 07:44:16;;;;;;;;;;;27.70;41.50;;;;;;5076975;28;1897;-45
2022/07/09 07:46:42;;;;;;;;;;;27.60;41.50;;;;;;5077091;28;953;-45
2022/07/09 07:49:09;;;;;;;;;;;27.70;41.60;;;;;;5075746;28;929;-45
2022/07/09 07:51:36;;;;;;;;;;;27.70;41.50;;;;;;5074793;28;930;-46
2022/07/09 07:54:03;;;;;;;;;;;27.70;41.40;;;;;;5076177;28;941;-46
2022/07/09 07:56:32;;;;;;;;;;;27.70;41.40;;;;;;5075996;28;969;-45
2022/07/09 07:58:59;;;;;;;;;;;27.70;41.40;;;;;;5075096;28;1067;-45
2022/07/09 08:01:25;;;;;;;;;;;27.70;41.40;;;;;;5075929;28;1171;-46
2022/07/09 08:03:52;;;;;;;;;;;27.70;41.40;;;;;;5073999;28;1984;-45
2022/07/09 08:06:19;;;;;;;;;;;27.70;42.40;;;;;;5075727;28;1032;-45
2022/07/09 08:08:46;;;;;;;;;;;27.70;41.30;;;;;;5075268;28;972;-45
2022/07/09 08:11:12;;;;;;;;;;;27.70;41.30;;;;;;5076452;28;949;-46
2022/07/09 08:13:40;;;;;;;;;;;27.70;41.40;;;;;;5073299;28;1015;-46
2022/07/09 08:16:07;;;;;;;;;;;27.70;41.30;;;;;;5073564;28;873;-46
2022/07/09 08:18:34;;;;;;;;;;;27.70;41.30;;;;;;5073675;28;996;-46
2022/07/09 08:21:01;;;;;;;;;;;27.70;41.30;;;;;;5073584;28;1015;-45
2022/07/09 08:23:28;;;;;;;;;;;27.70;41.30;;;;;;5073938;28;1905;-45
2022/07/09 08:25:54;;;;;;;;;;;27.70;41.30;;;;;;5072839;28;901;-45
2022/07/09 08:28:21;;;;;;;;;;;27.70;41.30;;;;;;5073502;28;941;-45
2022/07/09 08:30:49;;;;;;;;;;;27.80;41.30;;;;;;5072871;28;929;-46
2022/07/09 08:33:16;;;;;;;;;;;27.80;41.30;;;;;;5073448;28;995;-46
2022/07/09 08:35:43;;;;;;;;;;;27.70;41.20;;;;;;5072504;28;969;-45
2022/07/09 08:38:10;;;;;;;;;;;27.80;41.30;;;;;;5073289;28;928;-45
2022/07/09 08:40:37;;;;;;;;;;;27.80;41.20;;;;;;5075072;28;1037;-45
2022/07/09 08:43:04;;;;;;;;;;;27.80;41.20;;;;;;5075183;28;1911;-44
2022/07/09 08:45:31;;;;;;;;;;;27.80;41.20;;;;;;5075712;28;985;-45
2022/07/09 08:47:59;;;;;;;;;;;27.80;41.10;;;;;;5075422;28;997;-44
2022/07/09 08:50:26;;;;;;;;;;;27.80;41.20;;;;;;5073529;28;986;-44
2022/07/09 08:52:55;;;;;;;;;;;27.80;41.20;;;;;;5071005;28;909;-44
2022/07/09 08:55:22;;;;;;;;;;;27.80;41.10;;;;;;5075548;28;912;-44
2022/07/09 08:57:49;;;;;;;;;;;27.80;41.10;;;;;;5073621;28;1080;-44
2022/07/09 09:00:16;;;;;;;;;;;27.80;41.10;;;;;;5074331;28;1458;-45
2022/07/09 09:02:42;;;;;;;;;;;27.80;41.10;;;;;;5074955;28;1151;-45
2022/07/09 09:05:13;;;;;;;;;;;27.80;41.00;;;;;;5075620;28;1898;-43
2022/07/09 09:07:40;;;;;;;;;;;27.90;41.10;;;;;;5075335;28;1051;-44
2022/07/09 09:10:07;;;;;;;;;;;27.90;41.10;;;;;;5075440;28;956;-44
2022/07/09 09:12:34;;;;;;;;;;;27.90;41.10;;;;;;5072686;28;1008;-44
2022/07/09 09:15:05;;;;;;;;;;;27.90;41.20;;;;;;5077285;28;965;-45
2022/07/09 09:17:31;;;;;;;;;;;27.90;41.00;;;;;;5079601;28;1012;-44
2022/07/09 09:19:58;;;;;;;;;;;27.90;41.00;;;;;;5079912;28;913;-45
2022/07/09 09:22:26;;;;;;;;;;;27.90;40.90;;;;;;5061701;28;1009;-44
2022/07/09 09:24:53;;;;;;;;;;;27.90;41.00;;;;;;5051738;28;1910;-44
2022/07/09 09:27:28;;;;;;;;;;;27.90;41.00;;;;;;5052653;28;843;-44
2022/07/09 09:29:58;;;;;;;;;;;27.90;41.00;;;;;;5052093;28;993;-44
2022/07/09 09:32:24;;;;;;;;;;;27.90;41.10;;;;;;5052515;28;881;-48
2022/07/09 09:34:51;;;;;;;;;;;27.90;41.10;;;;;;5072212;28;1011;-47
2022/07/09 09:37:27;;;;;;;;;;;28.10;40.60;;;;;;5076978;28;945;-47
2022/07/09 09:39:54;;;;;;;;;;;28.10;40.00;;;;;;5077877;28;932;-48
2022/07/09 09:42:22;;;;;;;;;;;28.10;40.20;;;;;;5077552;28;944;-47
2022/07/09 09:44:50;;;;;;;;;;;28.20;39.90;;;;;;5076307;28;1906;-48
2022/07/09 09:47:19;;;;;;;;;;;28.10;40.20;;;;;;5077426;28;929;-47
2022/07/09 09:49:47;;;;;;;;;;;28.20;40.20;;;;;;5078400;28;1299;-48
2022/07/09 09:52:16;;;;;;;;;;;28.20;40.00;;;;;;5077563;28;976;-47
2022/07/09 09:54:47;;;;;;;;;;;28.20;40.20;;;;;;5077545;28;1004;-47
2022/07/09 09:57:13;;;;;;;;;;;28.20;40.20;;;;;;5076341;28;908;-48
2022/07/09 09:59:45;;;;;;;;;;;28.10;40.30;;;;;;5077114;28;1077;-48
2022/07/09 10:02:12;;;;;;;;;;;28.20;40.40;;;;;;5077997;28;1173;-47
2022/07/09 10:04:40;;;;;;;;;;;28.20;40.20;;;;;;5078458;28;1904;-39
2022/07/09 10:07:07;;;;;;;;;;;28.20;40.20;;;;;;5078153;28;1000;-38
2022/07/09 10:09:34;;;;;;;;;;;28.20;39.70;;;;;;5077816;28;945;-38
2022/07/09 10:12:02;;;;;;;;;;;28.30;39.70;;;;;;5077610;28;948;-39
2022/07/09 10:14:32;;;;;;;;;;;28.20;39.60;;;;;;5077091;28;997;-39
2022/07/09 10:17:09;;;;;;;;;;;28.20;39.70;;;;;;5077627;28;991;-37
2022/07/09 10:19:37;;;;;;;;;;;28.30;39.70;;;;;;5078360;28;933;-39
2022/07/09 10:22:04;;;;;;;;;;;28.40;39.00;;;;;;5074801;28;1001;-38
2022/07/09 10:24:33;;;;;;;;;;;28.20;39.20;;;;;;5077021;28;1979;-37
2022/07/09 10:27:05;;;;;;;;;;;28.10;39.40;;;;;;5075733;28;1004;-37
2022/07/09 10:29:32;;;;;;;;;;;28.20;39.10;;;;;;5074949;28;1786;-39
2022/07/09 10:31:59;;;;;;;;;;;28.30;39.00;;;;;;5076937;28;985;-39
2022/07/09 10:34:45;;;;;;;;;;;28.20;39.00;;;;;;5078164;28;990;-39
2022/07/09 10:37:12;;;;;;;;;;;28.30;39.00;;;;;;5077866;28;1271;-37
2022/07/09 10:39:38;;;;;;;;;;;28.30;38.90;;;;;;5077237;28;933;-37
2022/07/09 10:42:08;;;;;;;;;;;28.20;38.80;;;;;;5076995;28;936;-38
2022/07/09 10:44:36;;;;;;;;;;;28.20;38.90;;;;;;5077880;28;1894;-39
2022/07/09 10:47:03;;;;;;;;;;;28.20;39.00;;;;;;5077042;28;999;-37
2022/07/09 10:49:30;;;;;;;;;;;28.20;39.00;;;;;;5075938;28;937;-37
2022/07/09 10:51:58;;;;;;;;;;;28.10;39.40;;;;;;5077333;28;1015;-40
2022/07/09 10:54:25;;;;;;;;;;;28.20;39.20;;;;;;5076345;28;968;-38
2022/07/09 10:56:52;;;;;;;;;;;28.20;39.20;;;;;;5076286;28;980;-38
2022/07/09 10:59:20;;;;;;;;;;;28.20;39.20;;;;;;5076017;28;981;-40
2022/07/09 11:01:47;;;;;;;;;;;28.10;39.40;;;;;;5075779;28;1004;-38
2022/07/09 11:04:24;;;;;;;;;;;28.00;39.80;;;;;;5076489;28;1975;-38
2022/07/09 11:06:50;;;;;;;;;;;28.00;40.20;;;;;;5076127;28;1055;-37
2022/07/09 11:09:17;;;;;;;;;;;28.10;39.60;;;;;;5076835;28;933;-37
2022/07/09 11:11:45;;;;;;;;;;;28.10;39.10;;;;;;5075374;28;941;-38
2022/07/09 11:14:11;;;;;;;;;;;28.10;39.20;;;;;;5075684;28;1019;-38
2022/07/09 11:16:40;;;;;;;;;;;28.00;39.10;;;;;;5074825;28;977;-37
2022/07/09 11:19:13;;;;;;;;;;;28.00;39.40;;;;;;5071890;28;1020;-38
2022/07/09 11:21:40;;;;;;;;;;;28.10;39.60;;;;;;5076120;28;953;-37
2022/07/09 11:24:13;;;;;;;;;;;28.00;39.60;;;;;;5075358;28;1971;-38
2022/07/09 11:26:40;;;;;;;;;;;28.00;41.00;;;;;;5075836;28;881;-38
2022/07/09 11:29:07;;;;;;;;;;;28.00;39.80;;;;;;5075601;28;971;-41
2022/07/09 11:31:34;;;;;;;;;;;28.10;39.70;;;;;;5075595;28;921;-38
2022/07/09 11:34:11;;;;;;;;;;;28.20;39.50;;;;;;5076926;28;981;-40
2022/07/09 11:36:39;;;;;;;;;;;28.00;39.70;;;;;;5076474;28;952;-39
2022/07/09 11:39:06;;;;;;;;;;;28.20;39.70;;;;;;5076797;28;971;-39
2022/07/09 11:41:40;;;;;;;;;;;28.30;39.50;;;;;;5076292;28;1044;-39
2022/07/09 11:44:07;;;;;;;;;;;28.30;39.20;;;;;;5075443;28;1918;-39
2022/07/09 11:46:33;;;;;;;;;;;28.30;39.30;;;;;;5075297;28;902;-41
2022/07/09 11:49:01;;;;;;;;;;;28.30;39.40;;;;;;5076265;28;1781;-42
2022/07/09 11:51:28;;;;;;;;;;;28.30;39.70;;;;;;5075089;28;953;-38
2022/07/09 11:53:55;;;;;;;;;;;28.30;40.10;;;;;;5074697;28;1027;-39
2022/07/09 11:56:22;;;;;;;;;;;28.30;39.80;;;;;;5075227;28;1158;-39
2022/07/09 11:58:50;;;;;;;;;;;28.20;40.00;;;;;;5076713;28;977;-41
2022/07/09 12:01:17;;;;;;;;;;;28.20;39.90;;;;;;5075311;28;1169;-42
2022/07/09 12:03:47;;;;;;;;;;;28.10;40.80;;;;;;5075320;28;1206;-39
2022/07/09 12:06:16;;;;;;;;;;;28.30;40.10;;;;;;5076407;28;2208;-40
2022/07/09 12:08:43;;;;;;;;;;;28.30;39.90;;;;;;5075249;28;1190;-46
2022/07/09 12:11:10;;;;;;;;;;;28.30;39.30;;;;;;5075974;28;1020;-39
2022/07/09 12:13:37;;;;;;;;;;;28.30;39.40;;;;;;5076773;28;1000;-39
2022/07/09 12:16:04;;;;;;;;;;;28.40;39.30;;;;;;5077052;28;989;-38
2022/07/09 12:18:31;;;;;;;;;;;28.30;39.10;;;;;;5076344;28;982;-40
2022/07/09 12:20:58;;;;;;;;;;;28.20;39.50;;;;;;5075022;28;973;-38
2022/07/09 12:23:26;;;;;;;;;;;28.30;39.50;;;;;;5073997;28;905;-38
2022/07/09 12:25:53;;;;;;;;;;;28.20;39.50;;;;;;5073145;28;1905;-39
2022/07/09 12:28:20;;;;;;;;;;;28.20;39.60;;;;;;5073568;28;988;-39
2022/07/09 12:30:47;;;;;;;;;;;28.20;39.70;;;;;;5059236;28;956;-40
2022/07/09 12:33:14;;;;;;;;;;;28.20;39.50;;;;;;5049321;28;1044;-40
2022/07/09 12:35:40;;;;;;;;;;;28.20;39.80;;;;;;5068223;28;972;-41
2022/07/09 12:38:07;;;;;;;;;;;28.20;39.90;;;;;;5075829;28;1010;-39
2022/07/09 12:40:35;;;;;;;;;;;28.20;39.90;;;;;;5075695;28;1134;-39
2022/07/09 12:43:02;;;;;;;;;;;28.30;40.00;;;;;;5074390;28;943;-39
2022/07/09 12:45:29;;;;;;;;;;;28.30;40.10;;;;;;5075209;28;1906;-42
2022/07/09 12:47:56;;;;;;;;;;;28.20;40.00;;;;;;5074293;28;865;-38
2022/07/09 12:50:22;;;;;;;;;;;28.20;40.30;;;;;;5078074;28;978;-40
2022/07/09 12:52:50;;;;;;;;;;;28.10;40.30;;;;;;5078806;28;997;-39
2022/07/09 12:55:17;;;;;;;;;;;28.20;40.20;;;;;;5079778;28;1096;-39
2022/07/09 12:57:45;;;;;;;;;;;28.20;40.40;;;;;;5080353;28;912;-38
2022/07/09 13:00:13;;;;;;;;;;;28.20;41.10;;;;;;5079395;28;987;-39
2022/07/09 13:02:40;;;;;;;;;;;28.20;42.20;;;;;;5075339;28;1173;-39
2022/07/09 13:05:09;;;;;;;;;;;28.20;43.00;;;;;;5079497;28;1918;-38
2022/07/09 13:07:36;;;;;;;;;;;28.10;44.00;;;;;;5077091;28;998;-39
2022/07/09 13:10:02;;;;;;;;;;;28.20;44.20;;;;;;5079213;28;993;-40
2022/07/09 13:12:29;;;;;;;;;;;28.20;44.10;;;;;;5079876;28;1013;-39
2022/07/09 13:14:57;;;;;;;;;;;28.10;44.10;;;;;;5079078;28;1012;-39
2022/07/09 13:17:24;;;;;;;;;;;28.20;44.30;;;;;;5078996;28;876;-45
2022/07/09 13:19:52;;;;;;;;;;;28.10;44.20;;;;;;5078896;28;1016;-45
2022/07/09 13:22:19;;;;;;;;;;;28.10;44.30;;;;;;5078382;28;1029;-45
2022/07/09 13:24:45;;;;;;;;;;;28.10;43.90;;;;;;5075544;28;1972;-44
2022/07/09 13:27:12;;;;;;;;;;;28.00;43.90;;;;;;5075277;28;1049;-45
2022/07/09 13:29:40;;;;;;;;;;;28.00;43.90;;;;;;5075451;28;1024;-45
2022/07/09 13:32:08;;;;;;;;;;;28.00;44.10;;;;;;5075625;28;940;-44
2022/07/09 13:34:35;;;;;;;;;;;27.90;44.30;;;;;;5077253;28;953;-45
2022/07/09 13:37:02;;;;;;;;;;;27.90;44.60;;;;;;5077216;28;1009;-45
2022/07/09 13:39:29;;;;;;;;;;;27.90;44.70;;;;;;5077514;28;1015;-45
2022/07/09 13:41:56;;;;;;;;;;;27.90;45.00;;;;;;5077022;28;947;-45
2022/07/09 13:44:22;;;;;;;;;;;27.80;45.10;;;;;;5077928;28;949;-38
2022/07/09 13:46:49;;;;;;;;;;;27.90;45.40;;;;;;5077587;28;1987;-38
2022/07/09 13:49:17;;;;;;;;;;;27.80;45.30;;;;;;5077760;28;978;-38
2022/07/09 13:51:44;;;;;;;;;;;27.80;45.30;;;;;;5077814;28;936;-38
2022/07/09 13:54:11;;;;;;;;;;;27.80;45.70;;;;;;5075067;28;996;-38
2022/07/09 13:56:37;;;;;;;;;;;27.80;45.60;;;;;;5078280;28;980;-38
2022/07/09 13:59:04;;;;;;;;;;;27.70;45.50;;;;;;5077903;28;994;-39
2022/07/09 14:01:31;;;;;;;;;;;27.70;45.00;;;;;;5075784;28;1388;-39
2022/07/09 14:03:58;;;;;;;;;;;27.70;45.00;;;;;;5077669;28;1266;-41
2022/07/09 14:06:26;;;;;;;;;;;27.80;45.10;;;;;;5077949;28;1879;-39
2022/07/09 14:08:53;;;;;;;;;;;27.70;45.00;;;;;;5076458;28;1015;-38
2022/07/09 14:11:19;;;;;;;;;;;27.80;44.10;;;;;;5076202;28;1026;-38
2022/07/09 14:13:48;;;;;;;;;;;27.80;43.70;;;;;;5076459;28;944;-39
2022/07/09 14:16:15;;;;;;;;;;;27.70;43.60;;;;;;5077378;28;1020;-38
2022/07/09 14:18:42;;;;;;;;;;;27.70;43.50;;;;;;5076417;28;1016;-39
2022/07/09 14:21:08;;;;;;;;;;;27.70;43.60;;;;;;5075245;28;992;-41
2022/07/09 14:23:37;;;;;;;;;;;27.80;43.50;;;;;;5077260;28;1041;-39
2022/07/09 14:26:04;;;;;;;;;;;27.80;43.40;;;;;;5077352;28;1910;-38
2022/07/09 14:28:31;;;;;;;;;;;27.90;43.20;;;;;;5074838;28;2257;-39
2022/07/09 14:30:57;;;;;;;;;;;27.90;42.80;;;;;;5075691;28;953;-38
2022/07/09 14:33:24;;;;;;;;;;;27.90;42.50;;;;;;5075428;28;1020;-38
2022/07/09 14:35:51;;;;;;;;;;;27.80;42.30;;;;;;5075983;28;989;-38